Time;durP1;ratioP1;P1;durP2;ratioP2;P2;SDS_P1;SDS_P2;PMS_P1;PMS_P2;Temp;Humidity;BMP_temperature;BMP_pressure;BME280_temperature;BME280_humidity;BME280_pressure;Samples;Min_cycle;Max_cycle;Signal;HPM_P1;HPM_P2
2022/10/02 00:01:39;;;;;;;;;;;;;;;19.57;52.34;101252.59;5005841;28;19916;-57
2022/10/02 00:04:04;;;;;;;;;;;;;;;19.57;52.72;101263.38;5006537;28;20365;-54
2022/10/02 00:06:34;;;;;;;;;;;;;;;19.42;52.34;101247.84;5023390;28;19917;-57
2022/10/02 00:08:59;;;;;;;;;;;;;;;19.55;52.51;101268.94;5006652;28;19909;-58
2022/10/02 00:11:42;;;;;;;;;;;;;;;19.55;52.50;101265.41;5006417;28;20020;-57
2022/10/02 00:14:09;;;;;;;;;;;;;;;19.55;52.57;101257.31;5029452;28;20305;-55
2022/10/02 00:16:41;;;;;;;;;;;;;;;19.54;52.46;101256.47;5006138;28;19913;-57
2022/10/02 00:19:10;;;;;;;;;;;;;;;19.54;52.61;101239.41;5022796;28;19968;-55
2022/10/02 00:21:44;;;;;;;;;;;;;;;19.53;52.48;101238.56;5023668;28;19920;-57
2022/10/02 00:24:32;;;;;;;;;;;;;;;19.53;52.48;101241.28;5022365;28;19913;-54
2022/10/02 00:27:00;;;;;;;;;;;;;;;19.53;52.40;101240.44;4962488;29;19972;-57
2022/10/02 00:29:27;;;;;;;;;;;;;;;19.53;52.63;101235.03;4946790;29;19950;-57
2022/10/02 00:31:56;;;;;;;;;;;;;;;19.52;52.38;101250.38;4946372;29;19910;-55
2022/10/02 00:34:33;;;;;;;;;;;;;;;19.51;52.63;101246.00;4946968;29;19950;-58
2022/10/02 00:36:58;;;;;;;;;;;;;;;19.52;52.39;101252.25;4962458;29;19929;-57
2022/10/02 00:39:27;;;;;;;;;;;;;;;19.51;52.55;101267.56;4963023;29;19910;-58
2022/10/02 00:42:13;;;;;;;;;;;;;;;19.51;52.48;101262.19;4946843;29;19914;-58
2022/10/02 00:44:57;;;;;;;;;;;;;;;19.51;52.21;101262.19;4943065;29;19918;-58
2022/10/02 00:47:29;;;;;;;;;;;;;;;19.52;52.62;101276.50;4963764;28;19925;-58
2022/10/02 00:49:57;;;;;;;;;;;;;;;19.50;52.55;101287.47;4966308;29;19916;-58
2022/10/02 00:52:23;;;;;;;;;;;;;;;19.48;52.32;101293.00;4966210;29;19910;-56
2022/10/02 00:55:07;;;;;;;;;;;;;;;19.48;52.65;101284.91;4966252;29;19922;-57
2022/10/02 00:57:35;;;;;;;;;;;;;;;19.48;52.51;101282.22;4965952;29;19926;-56
2022/10/02 01:00:00;;;;;;;;;;;;;;;19.48;52.55;101276.00;4966082;29;20078;-57
2022/10/02 01:02:25;;;;;;;;;;;;;;;19.48;52.43;101265.19;4965625;29;19927;-58
2022/10/02 01:04:50;;;;;;;;;;;;;;;19.48;52.48;101249.03;4998208;28;19916;-58
2022/10/02 01:07:15;;;;;;;;;;;;;;;19.47;52.24;101258.97;5019520;28;19921;-57
2022/10/02 01:09:41;;;;;;;;;;;;;;;19.47;52.46;101263.53;5027109;28;19910;-57
2022/10/02 01:12:06;;;;;;;;;;;;;;;19.46;52.42;101269.94;5009253;28;19917;-58
2022/10/02 01:14:32;;;;;;;;;;;;;;;19.45;52.30;101277.19;5026808;28;20004;-56
2022/10/02 01:16:57;;;;;;;;;;;;;;;19.46;52.34;101278.03;5026332;28;19913;-58
2022/10/02 01:19:28;;;;;;;;;;;;;;;19.45;52.49;101287.97;5026934;28;20321;-58
2022/10/02 01:21:58;;;;;;;;;;;;;;;19.45;52.46;101282.56;5022176;28;19922;-57
2022/10/02 01:24:24;;;;;;;;;;;;;;;19.44;52.46;101283.56;5024145;28;19914;-58
2022/10/02 01:26:50;;;;;;;;;;;;;;;19.44;52.31;101277.31;5020006;28;19924;-57
2022/10/02 01:29:15;;;;;;;;;;;;;;;19.45;52.26;101273.59;5023723;28;19913;-58
2022/10/02 01:31:41;;;;;;;;;;;;;;;19.44;52.47;101277.31;5026029;28;19909;-58
2022/10/02 01:34:06;;;;;;;;;;;;;;;19.43;52.46;101278.34;5009153;28;20392;-57
2022/10/02 01:36:31;;;;;;;;;;;;;;;19.43;52.23;101283.72;5008334;28;19917;-58
2022/10/02 01:38:57;;;;;;;;;;;;;;;19.42;52.56;101280.19;5009121;28;19916;-58
2022/10/02 01:41:22;;;;;;;;;;;;;;;19.42;52.09;101279.34;5026385;28;19909;-58
2022/10/02 01:43:51;;;;;;;;;;;;;;;19.41;52.18;101280.34;5026334;28;19917;-56
2022/10/02 01:46:16;;;;;;;;;;;;;;;19.41;52.24;101280.34;5007999;28;19968;-58
2022/10/02 01:48:42;;;;;;;;;;;;;;;19.42;52.52;101284.75;5026514;28;19905;-57
2022/10/02 01:51:10;;;;;;;;;;;;;;;19.40;52.42;101278.66;5026019;28;19916;-56
2022/10/02 01:53:35;;;;;;;;;;;;;;;19.40;52.25;101278.66;5026559;28;20326;-58
2022/10/02 01:56:02;;;;;;;;;;;;;;;19.40;52.20;101294.84;5025944;28;19915;-56
2022/10/02 01:58:35;;;;;;;;;;;;;;;19.39;52.36;101288.59;5025742;28;19916;-58
2022/10/02 02:01:12;;;;;;;;;;;;;;;19.39;52.22;101280.50;5008123;28;19910;-57
2022/10/02 02:03:56;;;;;;;;;;;;;;;19.39;52.22;101285.06;5008737;28;19905;-58
2022/10/02 02:06:30;;;;;;;;;;;;;;;19.39;52.22;101293.16;5025214;28;19920;-58
2022/10/02 02:09:00;;;;;;;;;;;;;;;19.39;52.30;101295.84;5026061;28;19916;-57
2022/10/02 02:11:26;;;;;;;;;;;;;;;19.38;52.17;101295.00;5007837;28;19970;-58
2022/10/02 02:13:58;;;;;;;;;;;;;;;19.38;52.12;101295.00;5000534;28;19968;-56
2022/10/02 02:16:35;;;;;;;;;;;;;;;19.37;52.15;101287.06;5007664;28;19940;-57
2022/10/02 02:19:02;;;;;;;;;;;;;;;19.37;52.06;101285.22;5008285;28;19920;-54
2022/10/02 02:21:29;;;;;;;;;;;;;;;19.37;52.39;101296.03;5008050;28;19909;-57
2022/10/02 02:23:55;;;;;;;;;;;;;;;19.37;52.49;101301.41;5025936;28;20301;-56
2022/10/02 02:26:20;;;;;;;;;;;;;;;19.36;52.24;101301.56;5007591;28;19921;-55
2022/10/02 02:28:47;;;;;;;;;;;;;;;19.35;52.38;101298.03;5025629;28;19913;-58
2022/10/02 02:31:13;;;;;;;;;;;;;;;19.35;52.33;101291.78;5007402;28;19909;-58
2022/10/02 02:33:42;;;;;;;;;;;;;;;19.36;52.10;101296.16;5008138;28;20458;-56
2022/10/02 02:36:11;;;;;;;;;;;;;;;19.35;52.37;101286.41;5025035;28;19909;-57
2022/10/02 02:38:38;;;;;;;;;;;;;;;19.34;52.44;101293.63;5000726;28;19913;-58
2022/10/02 02:41:04;;;;;;;;;;;;;;;19.34;52.14;101293.63;5007414;28;19913;-58
2022/10/02 02:43:38;;;;;;;;;;;;;;;19.34;52.44;101292.81;5007909;28;20335;-58
2022/10/02 02:46:07;;;;;;;;;;;;;;;19.33;52.27;101291.97;5006973;28;19913;-56
2022/10/02 02:48:38;;;;;;;;;;;;;;;19.33;52.15;101294.66;5007815;28;19943;-56
2022/10/02 02:51:05;;;;;;;;;;;;;;;19.32;52.25;101284.84;5007490;28;19910;-56
2022/10/02 02:53:34;;;;;;;;;;;;;;;19.31;52.14;101291.25;5007716;28;19998;-58
2022/10/02 02:56:00;;;;;;;;;;;;;;;19.32;52.28;101289.41;5007426;28;20309;-55
2022/10/02 02:58:44;;;;;;;;;;;;;;;19.31;52.14;101291.25;5007343;28;19916;-58
2022/10/02 03:01:09;;;;;;;;;;;;;;;19.31;52.03;101293.13;5024325;28;20287;-58
2022/10/02 03:03:34;;;;;;;;;;;;;;;19.32;52.15;101295.63;5007646;28;19915;-56
2022/10/02 03:06:14;;;;;;;;;;;;;;;19.30;52.11;101297.66;5024376;28;19936;-58
2022/10/02 03:08:40;;;;;;;;;;;;;;;19.30;52.07;101305.75;5025037;28;19940;-57
2022/10/02 03:11:16;;;;;;;;;;;;;;;19.30;52.10;101315.69;5006385;28;19944;-57
2022/10/02 03:13:57;;;;;;;;;;;;;;;19.29;52.20;101306.78;5004147;28;19909;-58
2022/10/02 03:16:28;;;;;;;;;;;;;;;19.28;52.00;101299.66;5021151;28;20456;-58
2022/10/02 03:19:13;;;;;;;;;;;;;;;19.28;52.21;101302.34;5020298;28;19909;-58
2022/10/02 03:21:40;;;;;;;;;;;;;;;19.28;51.97;101298.81;5020015;28;19913;-57
2022/10/02 03:24:05;;;;;;;;;;;;;;;19.27;52.23;101280.97;5020356;28;19918;-58
2022/10/02 03:26:33;;;;;;;;;;;;;;;19.27;52.16;101286.34;5023638;28;19984;-57
2022/10/02 03:29:00;;;;;;;;;;;;;;;19.26;52.10;101299.00;5024475;28;19913;-57
2022/10/02 03:31:26;;;;;;;;;;;;;;;19.26;52.07;101292.75;5021308;28;19913;-57
2022/10/02 03:33:52;;;;;;;;;;;;;;;19.25;51.91;101289.22;5024655;28;19909;-57
2022/10/02 03:36:19;;;;;;;;;;;;;;;19.25;52.02;101297.31;5019492;28;19932;-56
2022/10/02 03:38:44;;;;;;;;;;;;;;;19.25;52.06;101302.69;5005120;28;19905;-57
2022/10/02 03:41:10;;;;;;;;;;;;;;;19.24;52.02;101306.38;5012117;28;19914;-58
2022/10/02 03:43:35;;;;;;;;;;;;;;;19.23;52.15;101308.22;5004951;28;20722;-58
2022/10/02 03:46:00;;;;;;;;;;;;;;;19.23;52.14;101302.84;5004242;28;20379;-58
2022/10/02 03:48:25;;;;;;;;;;;;;;;19.23;52.01;101312.78;5004403;28;19929;-58
2022/10/02 03:50:50;;;;;;;;;;;;;;;19.22;52.20;101311.94;5004350;28;19918;-59
2022/10/02 03:53:20;;;;;;;;;;;;;;;19.22;52.20;101308.41;5004810;28;19932;-58
2022/10/02 03:55:53;;;;;;;;;;;;;;;19.21;52.24;101314.81;5004380;28;20629;-59
2022/10/02 03:58:18;;;;;;;;;;;;;;;19.21;52.19;101310.25;5004394;28;19917;-59
2022/10/02 04:01:03;;;;;;;;;;;;;;;19.21;52.13;101309.41;5004352;28;19910;-57
2022/10/02 04:03:30;;;;;;;;;;;;;;;19.19;52.13;101309.56;5003890;28;19953;-58
2022/10/02 04:05:57;;;;;;;;;;;;;;;19.19;52.02;101317.66;4986285;28;19964;-57
2022/10/02 04:08:40;;;;;;;;;;;;;;;19.19;52.27;101316.81;5004348;28;19909;-58
2022/10/02 04:11:07;;;;;;;;;;;;;;;19.19;52.05;101319.50;5000420;28;19918;-58
2022/10/02 04:13:36;;;;;;;;;;;;;;;19.19;51.89;101324.91;4987016;28;19941;-58
2022/10/02 04:16:15;;;;;;;;;;;;;;;19.18;52.15;101325.91;5004359;28;19909;-55
2022/10/02 04:18:50;;;;;;;;;;;;;;;19.17;52.11;101327.75;5019517;28;19925;-59
2022/10/02 04:21:36;;;;;;;;;;;;;;;19.18;51.99;101342.09;5019317;28;19910;-59
2022/10/02 04:24:08;;;;;;;;;;;;;;;19.16;52.18;101336.84;5007719;28;20505;-57
2022/10/02 04:26:33;;;;;;;;;;;;;;;19.17;51.86;101348.47;4990410;28;19937;-58
2022/10/02 04:29:00;;;;;;;;;;;;;;;19.17;52.18;101343.09;4990491;28;19921;-59
2022/10/02 04:31:27;;;;;;;;;;;;;;;19.16;52.29;101349.50;5007365;28;20506;-58
2022/10/02 04:33:53;;;;;;;;;;;;;;;19.16;51.83;101350.34;4991153;28;19945;-58
2022/10/02 04:36:18;;;;;;;;;;;;;;;19.15;52.08;101350.47;4977370;28;19917;-57
2022/10/02 04:38:46;;;;;;;;;;;;;;;19.14;52.20;101352.34;5028009;28;19917;-57
2022/10/02 04:41:23;;;;;;;;;;;;;;;19.14;51.98;101340.72;5026713;28;19944;-59
2022/10/02 04:44:11;;;;;;;;;;;;;;;19.13;52.35;101347.94;5010247;28;19916;-58
2022/10/02 04:46:56;;;;;;;;;;;;;;;19.13;52.09;101347.13;5018345;28;19920;-58
2022/10/02 04:49:33;;;;;;;;;;;;;;;19.12;51.95;101351.66;5010145;28;20317;-59
2022/10/02 04:52:05;;;;;;;;;;;;;;;19.12;52.25;101354.34;5027418;28;19929;-58
2022/10/02 04:54:49;;;;;;;;;;;;;;;19.13;52.13;101357.88;5008813;28;19970;-59
2022/10/02 04:57:31;;;;;;;;;;;;;;;19.12;52.23;101362.44;5024730;28;19916;-59
2022/10/02 05:00:09;;;;;;;;;;;;;;;19.11;52.24;101352.63;5007943;28;19952;-59
2022/10/02 05:02:53;;;;;;;;;;;;;;;19.11;52.16;101358.03;5016018;28;20010;-59
2022/10/02 05:05:28;;;;;;;;;;;;;;;19.11;52.14;101365.28;5025162;28;20118;-59
2022/10/02 05:07:53;;;;;;;;;;;;;;;19.11;52.34;101362.59;5004128;28;19914;-58
2022/10/02 05:10:24;;;;;;;;;;;;;;;19.11;52.16;101365.28;5025319;28;19920;-59
2022/10/02 05:12:55;;;;;;;;;;;;;;;19.11;52.39;101363.41;5023210;28;20013;-59
2022/10/02 05:15:41;;;;;;;;;;;;;;;19.10;52.25;101360.91;5026126;28;19910;-59
2022/10/02 05:18:21;;;;;;;;;;;;;;;19.11;52.47;101365.28;5025623;28;19913;-58
2022/10/02 05:20:51;;;;;;;;;;;;;;;19.11;52.52;101351.81;5008410;28;19913;-58
2022/10/02 05:23:23;;;;;;;;;;;;;;;19.11;52.39;101354.50;5008789;28;19928;-58
2022/10/02 05:25:55;;;;;;;;;;;;;;;19.11;52.30;101359.88;5025373;28;19936;-59
2022/10/02 05:28:24;;;;;;;;;;;;;;;19.10;52.35;101359.03;5025877;28;19909;-58
2022/10/02 05:30:52;;;;;;;;;;;;;;;19.10;52.55;101361.75;5008341;28;19932;-58
2022/10/02 05:33:31;;;;;;;;;;;;;;;19.10;52.75;101364.44;5025355;28;19909;-59
2022/10/02 05:35:57;;;;;;;;;;;;;;;19.10;52.63;101364.44;5025322;28;19968;-58
2022/10/02 05:38:43;;;;;;;;;;;;;;;19.10;52.62;101368.97;5025786;28;19933;-57
2022/10/02 05:41:19;;;;;;;;;;;;;;;19.11;52.46;101378.75;5005727;28;20082;-58
2022/10/02 05:43:56;;;;;;;;;;;;;;;19.11;52.73;101376.06;5006359;28;19909;-58
2022/10/02 05:46:22;;;;;;;;;;;;;;;19.11;52.85;101378.75;5004909;28;19914;-59
2022/10/02 05:48:50;;;;;;;;;;;;;;;19.10;52.88;101388.69;5008113;28;19916;-58
2022/10/02 05:51:17;;;;;;;;;;;;;;;19.10;52.61;101382.47;5007886;28;19926;-59
2022/10/02 05:53:44;;;;;;;;;;;;;;;19.11;52.79;101389.53;4999540;28;20378;-58
2022/10/02 05:56:14;;;;;;;;;;;;;;;19.10;52.83;101399.47;5006844;28;19920;-59
2022/10/02 05:58:54;;;;;;;;;;;;;;;19.11;52.94;101397.63;5008278;28;19921;-59
2022/10/02 06:01:22;;;;;;;;;;;;;;;19.11;52.82;101400.31;5023302;28;19988;-59
2022/10/02 06:03:48;;;;;;;;;;;;;;;19.10;52.94;101412.94;5007921;28;20373;-59
2022/10/02 06:06:13;;;;;;;;;;;;;;;19.10;53.02;101417.50;5007605;28;19913;-57
2022/10/02 06:08:57;;;;;;;;;;;;;;;19.10;52.89;101407.56;5025481;28;19909;-59
2022/10/02 06:11:42;;;;;;;;;;;;;;;19.09;53.16;101403.19;5023541;28;19916;-60
2022/10/02 06:14:13;;;;;;;;;;;;;;;19.10;52.94;101412.94;5002143;28;19909;-56
2022/10/02 06:16:39;;;;;;;;;;;;;;;19.10;53.07;101417.50;5022211;28;19916;-59
2022/10/02 06:19:08;;;;;;;;;;;;;;;19.09;52.99;101416.66;5007767;28;19925;-59
2022/10/02 06:21:46;;;;;;;;;;;;;;;19.09;53.14;101415.81;5007451;28;20324;-58
2022/10/02 06:24:12;;;;;;;;;;;;;;;19.10;52.87;101417.50;5007887;28;19917;-59
2022/10/02 06:26:59;;;;;;;;;;;;;;;19.10;53.16;101420.19;5007225;28;19920;-59
2022/10/02 06:29:28;;;;;;;;;;;;;;;19.09;53.22;101426.59;5023544;28;19909;-59
2022/10/02 06:31:59;;;;;;;;;;;;;;;19.09;53.19;101429.28;5024504;28;20056;-59
2022/10/02 06:34:24;;;;;;;;;;;;;;;19.09;53.22;101429.28;5025214;28;19909;-59
2022/10/02 06:36:56;;;;;;;;;;;;;;;19.10;53.22;101430.97;5003600;28;19977;-59
2022/10/02 06:39:41;;;;;;;;;;;;;;;19.09;53.27;101424.75;5004386;28;20028;-59
2022/10/02 06:42:06;;;;;;;;;;;;;;;19.09;53.12;101434.69;5023674;28;19920;-59
2022/10/02 06:44:48;;;;;;;;;;;;;;;19.09;53.01;101438.22;5023972;28;19913;-59
2022/10/02 06:47:23;;;;;;;;;;;;;;;19.09;53.25;101438.22;5006574;28;19928;-59
2022/10/02 06:49:58;;;;;;;;;;;;;;;19.10;53.30;101447.16;5022494;28;19917;-59
2022/10/02 06:52:30;;;;;;;;;;;;;;;19.09;53.06;101440.06;5017502;28;19913;-57
2022/10/02 06:55:14;;;;;;;;;;;;;;;19.10;53.56;101449.84;5003930;28;19916;-57
2022/10/02 06:57:39;;;;;;;;;;;;;;;19.11;53.07;101443.44;5024073;28;19917;-60
2022/10/02 07:00:10;;;;;;;;;;;;;;;19.12;53.45;101456.78;5024067;28;19914;-60
2022/10/02 07:02:54;;;;;;;;;;;;;;;19.12;53.46;101459.47;5010604;28;19920;-60
2022/10/02 07:05:23;;;;;;;;;;;;;;;19.13;53.50;101460.31;5010575;28;19914;-61
2022/10/02 07:07:51;;;;;;;;;;;;;;;19.15;53.72;101467.22;5023513;28;19914;-59
2022/10/02 07:10:16;;;;;;;;;;;;;;;19.17;53.60;101467.09;5019868;28;20493;-61
2022/10/02 07:12:53;;;;;;;;;;;;;;;19.19;53.55;101467.75;5024345;28;19909;-60
2022/10/02 07:15:34;;;;;;;;;;;;;;;19.18;53.61;101469.63;5018307;28;19917;-61
2022/10/02 07:18:20;;;;;;;;;;;;;;;19.20;53.71;101470.31;5006352;28;19913;-59
2022/10/02 07:20:51;;;;;;;;;;;;;;;19.21;53.78;101480.09;5017629;28;19913;-60
2022/10/02 07:23:28;;;;;;;;;;;;;;;19.22;53.82;101481.78;5022716;28;20009;-59
2022/10/02 07:25:59;;;;;;;;;;;;;;;19.24;53.67;101476.22;5013070;28;20028;-60
2022/10/02 07:28:31;;;;;;;;;;;;;;;19.25;53.62;101477.94;5019084;28;19909;-58
2022/10/02 07:30:58;;;;;;;;;;;;;;;19.27;53.83;101477.78;5022945;28;19945;-60
2022/10/02 07:33:29;;;;;;;;;;;;;;;19.28;53.81;101480.28;5034676;28;19941;-62
2022/10/02 07:36:00;;;;;;;;;;;;;;;19.29;53.88;101481.16;5022901;28;19932;-57
2022/10/02 07:38:42;;;;;;;;;;;;;;;19.30;53.73;101483.69;5009461;28;20009;-57
2022/10/02 07:41:13;;;;;;;;;;;;;;;19.32;53.52;101483.53;5023830;28;20044;-57
2022/10/02 07:43:51;;;;;;;;;;;;;;;19.32;53.56;101495.16;5023696;28;19913;-59
2022/10/02 07:46:20;;;;;;;;;;;;;;;19.33;53.69;101494.19;5023155;28;20417;-53
2022/10/02 07:49:05;;;;;;;;;;;;;;;19.35;53.35;101491.31;5016675;28;20826;-55
2022/10/02 07:51:52;;;;;;;;;;;;;;;19.35;53.45;101500.25;4980439;28;19910;-55
2022/10/02 07:54:29;;;;;;;;;;;;;;;19.37;53.30;101498.25;5023489;28;19942;-55
2022/10/02 07:56:55;;;;;;;;;;;;;;;19.39;53.61;101500.78;5023172;28;19925;-53
2022/10/02 07:59:20;;;;;;;;;;;;;;;19.40;53.49;101508.69;5017092;28;19913;-56
2022/10/02 08:01:46;;;;;;;;;;;;;;;19.42;53.21;101513.97;5004982;28;19928;-57
2022/10/02 08:04:13;;;;;;;;;;;;;;;19.45;53.42;101516.31;5017115;28;19905;-54
2022/10/02 08:06:38;;;;;;;;;;;;;;;19.47;53.23;101514.31;5005081;28;19924;-59
2022/10/02 08:09:11;;;;;;;;;;;;;;;19.48;53.39;101514.16;5021319;28;20413;-60
2022/10/02 08:11:38;;;;;;;;;;;;;;;19.51;53.24;101523.78;5010589;28;19924;-59
2022/10/02 08:14:29;;;;;;;;;;;;;;;19.53;53.24;101523.63;5023374;28;19914;-59
2022/10/02 08:16:55;;;;;;;;;;;;;;;19.56;53.41;101532.25;4982951;28;20017;-60
2022/10/02 08:19:40;;;;;;;;;;;;;;;19.58;53.33;101534.78;5016977;28;19913;-58
2022/10/02 08:22:19;;;;;;;;;;;;;;;19.60;53.39;101528.25;5022059;28;19925;-59
2022/10/02 08:24:46;;;;;;;;;;;;;;;19.63;53.36;101544.16;5020722;28;19923;-59
2022/10/02 08:27:15;;;;;;;;;;;;;;;19.65;53.53;101536.72;5001080;28;20021;-60
2022/10/02 08:29:40;;;;;;;;;;;;;;;19.68;53.56;101532.88;5027068;28;19916;-59
2022/10/02 08:32:08;;;;;;;;;;;;;;;19.70;53.75;101541.66;5029752;28;19917;-58
2022/10/02 08:34:34;;;;;;;;;;;;;;;19.71;53.48;101540.66;5019585;28;19913;-59
2022/10/02 08:37:18;;;;;;;;;;;;;;;19.75;53.38;101546.56;5020327;28;19932;-61
2022/10/02 08:40:02;;;;;;;;;;;;;;;19.79;53.43;101550.63;5023007;28;19960;-60
2022/10/02 08:42:32;;;;;;;;;;;;;;;19.83;53.48;101557.41;5009016;28;19937;-59
2022/10/02 08:45:16;;;;;;;;;;;;;;;19.88;53.09;101552.38;5005102;28;19916;-58
2022/10/02 08:47:42;;;;;;;;;;;;;;;19.92;52.78;101570.81;4995450;28;19913;-57
2022/10/02 08:50:13;;;;;;;;;;;;;;;19.95;52.88;101567.78;5015796;28;19910;-58
2022/10/02 08:52:53;;;;;;;;;;;;;;;19.97;52.59;101565.78;4989265;28;20398;-56
2022/10/02 08:55:28;;;;;;;;;;;;;;;20.01;52.59;101581.63;5023795;28;19940;-57
2022/10/02 08:57:53;;;;;;;;;;;;;;;20.04;52.39;101579.47;5012146;28;19910;-56
2022/10/02 09:00:22;;;;;;;;;;;;;;;20.05;52.65;101586.59;5017586;28;19967;-57
2022/10/02 09:02:56;;;;;;;;;;;;;;;20.06;52.57;101580.16;5006277;28;20373;-58
2022/10/02 09:05:31;;;;;;;;;;;;;;;20.04;52.42;101587.56;5008939;28;19913;-57
2022/10/02 09:08:06;;;;;;;;;;;;;;;20.04;52.64;101590.28;5023287;28;19983;-55
2022/10/02 09:10:50;;;;;;;;;;;;;;;20.01;52.78;101596.00;5026591;28;19917;-58
2022/10/02 09:13:34;;;;;;;;;;;;;;;20.00;53.13;101604.25;5015530;28;19913;-54
2022/10/02 09:16:09;;;;;;;;;;;;;;;19.97;52.83;101595.47;5025901;28;19913;-54
2022/10/02 09:18:55;;;;;;;;;;;;;;;19.98;53.21;101599.84;5009859;28;19916;-57
2022/10/02 09:21:35;;;;;;;;;;;;;;;20.01;53.27;101605.94;5018794;28;19913;-57
2022/10/02 09:24:01;;;;;;;;;;;;;;;20.04;53.24;101603.75;5026524;28;19914;-64
2022/10/02 09:26:41;;;;;;;;;;;;;;;20.08;53.13;101602.44;5026025;28;19972;-62
2022/10/02 09:29:13;;;;;;;;;;;;;;;20.11;53.28;101604.84;5005328;28;19924;-54
2022/10/02 09:31:42;;;;;;;;;;;;;;;20.14;53.42;101604.53;5009533;28;19980;-56
2022/10/02 09:34:07;;;;;;;;;;;;;;;20.17;53.28;101606.88;5005547;28;19967;-58
2022/10/02 09:36:44;;;;;;;;;;;;;;;20.20;53.27;101600.31;5025386;28;19917;-59
2022/10/02 09:39:28;;;;;;;;;;;;;;;20.21;52.96;101596.59;5004677;28;19922;-60
2022/10/02 09:41:53;;;;;;;;;;;;;;;20.22;52.88;101596.47;5011328;28;19913;-60
2022/10/02 09:44:22;;;;;;;;;;;;;;;20.23;53.05;101595.44;5021140;28;19913;-59
2022/10/02 09:47:06;;;;;;;;;;;;;;;20.25;52.92;101600.69;5008950;28;19933;-61
2022/10/02 09:49:44;;;;;;;;;;;;;;;20.27;53.39;101606.78;5026623;28;20635;-61
2022/10/02 09:52:15;;;;;;;;;;;;;;;20.29;53.04;101609.31;5023124;28;19914;-60
2022/10/02 09:54:59;;;;;;;;;;;;;;;20.30;53.35;101616.41;5020884;28;19920;-61
2022/10/02 09:57:53;;;;;;;;;;;;;;;20.32;53.14;101609.84;5024169;28;20009;-62
2022/10/02 10:00:24;;;;;;;;;;;;;;;20.34;53.04;101623.19;4931737;29;19962;-60
2022/10/02 10:03:04;;;;;;;;;;;;;;;20.33;53.42;101619.63;4911111;29;19958;-60
2022/10/02 10:05:38;;;;;;;;;;;;;;;20.34;53.16;101624.03;4917731;29;19919;-62
2022/10/02 10:08:09;;;;;;;;;;;;;;;20.36;53.27;101629.28;4926304;29;20006;-62
2022/10/02 10:10:39;;;;;;;;;;;;;;;20.37;53.17;101633.66;4941794;29;19915;-60
2022/10/02 10:13:24;;;;;;;;;;;;;;;20.39;53.19;101632.50;4926207;29;19915;-61
2022/10/02 10:16:00;;;;;;;;;;;;;;;20.41;53.04;101624.22;4920784;29;19911;-61
2022/10/02 10:18:25;;;;;;;;;;;;;;;20.42;53.07;101632.16;4933278;29;19914;-62
2022/10/02 10:21:09;;;;;;;;;;;;;;;20.43;52.88;101642.00;4927795;29;19915;-62
2022/10/02 10:23:35;;;;;;;;;;;;;;;20.45;52.89;101648.06;4931640;29;19914;-62
2022/10/02 10:26:19;;;;;;;;;;;;;;;20.47;52.76;101642.47;4925874;29;20391;-62
2022/10/02 10:29:03;;;;;;;;;;;;;;;20.47;52.65;101643.34;4929345;29;19911;-65
2022/10/02 10:31:42;;;;;;;;;;;;;;;20.47;52.63;101637.09;4937002;29;19914;-60
2022/10/02 10:34:26;;;;;;;;;;;;;;;20.46;52.71;101646.19;4909406;29;19919;-61
2022/10/02 10:40:08;;;;;;;;;;;;;;;20.42;52.76;101652.94;5012025;28;19956;-60
2022/10/02 10:42:38;;;;;;;;;;;;;;;20.39;52.86;101656.81;4991390;28;19956;-61
2022/10/02 10:45:06;;;;;;;;;;;;;;;20.38;52.93;101657.81;5006891;28;19959;-59
2022/10/02 10:47:47;;;;;;;;;;;;;;;20.34;52.70;101660.97;5023879;28;19943;-61
2022/10/02 10:50:19;;;;;;;;;;;;;;;20.32;52.95;101669.25;5010124;28;19916;-62
2022/10/02 10:53:03;;;;;;;;;;;;;;;20.31;52.92;101677.53;5004833;28;19913;-63
2022/10/02 10:55:28;;;;;;;;;;;;;;;20.29;52.90;101683.06;5021583;28;19913;-61
2022/10/02 10:58:03;;;;;;;;;;;;;;;20.30;53.12;101684.75;5023272;28;19909;-62
2022/10/02 11:00:46;;;;;;;;;;;;;;;20.30;52.80;101684.75;5024573;28;19909;-59
2022/10/02 11:03:30;;;;;;;;;;;;;;;20.33;52.61;101689.84;5009467;28;19935;-59
2022/10/02 11:06:02;;;;;;;;;;;;;;;20.36;52.47;101688.69;5024102;28;19921;-59
2022/10/02 11:08:39;;;;;;;;;;;;;;;20.38;52.91;101697.47;5019349;28;19936;-59
2022/10/02 11:11:07;;;;;;;;;;;;;;;20.40;52.50;101696.31;5011819;28;19985;-59
2022/10/02 11:13:40;;;;;;;;;;;;;;;20.41;52.91;101692.59;5012262;28;19976;-60
2022/10/02 11:16:12;;;;;;;;;;;;;;;20.43;53.05;101706.81;5007445;28;19913;-59
2022/10/02 11:18:43;;;;;;;;;;;;;;;20.19;52.62;101652.63;5008931;28;19945;-59
2022/10/02 11:21:22;;;;;;;;;;;;;;;20.46;52.73;101698.38;5024206;28;19948;-58
2022/10/02 11:23:50;;;;;;;;;;;;;;;20.49;52.76;101709.91;5016072;28;19910;-60
2022/10/02 11:26:34;;;;;;;;;;;;;;;20.50;52.95;101706.19;5006358;28;20497;-60
2022/10/02 11:29:06;;;;;;;;;;;;;;;20.51;52.82;101706.03;5021034;28;19959;-60
2022/10/02 11:31:45;;;;;;;;;;;;;;;20.51;52.86;101708.72;5005239;28;20055;-59
2022/10/02 11:34:26;;;;;;;;;;;;;;;20.51;52.60;101703.31;5021969;28;20214;-60
2022/10/02 11:36:57;;;;;;;;;;;;;;;20.53;52.62;101720.22;5021532;28;19917;-60
2022/10/02 11:39:29;;;;;;;;;;;;;;;20.53;52.85;101714.84;5006369;28;20004;-59
2022/10/02 11:41:54;;;;;;;;;;;;;;;20.53;52.88;101717.53;5023899;28;20357;-60
2022/10/02 11:44:21;;;;;;;;;;;;;;;20.52;52.91;101721.25;5023688;28;19913;-59
2022/10/02 11:47:01;;;;;;;;;;;;;;;20.53;52.85;101730.19;5020603;28;20008;-60
2022/10/02 11:49:29;;;;;;;;;;;;;;;20.52;52.88;101728.47;5023962;28;19913;-60
2022/10/02 11:51:57;;;;;;;;;;;;;;;20.50;52.73;101728.66;5023601;28;19924;-60
2022/10/02 11:54:48;;;;;;;;;;;;;;;20.49;52.96;101728.81;5023860;28;20362;-60
2022/10/02 11:57:13;;;;;;;;;;;;;;;20.47;52.76;101724.41;4998440;28;19910;-59
2022/10/02 11:59:48;;;;;;;;;;;;;;;20.45;53.05;101722.84;5023961;28;19914;-59
2022/10/02 12:02:16;;;;;;;;;;;;;;;20.45;52.92;101722.84;5021683;28;19916;-59
2022/10/02 12:04:56;;;;;;;;;;;;;;;20.45;53.05;101723.69;5023976;28;19943;-60
2022/10/02 12:07:27;;;;;;;;;;;;;;;20.39;53.13;101718.06;5005555;28;19917;-59
2022/10/02 12:09:53;;;;;;;;;;;;;;;20.47;52.92;101728.94;5024429;28;19960;-59
2022/10/02 12:12:24;;;;;;;;;;;;;;;20.45;52.56;101726.41;5023893;28;19973;-60
2022/10/02 12:15:01;;;;;;;;;;;;;;;20.45;53.09;101731.78;5006321;28;19920;-59
2022/10/02 12:17:52;;;;;;;;;;;;;;;20.43;52.80;101733.81;5038690;28;19913;-60
2022/10/02 12:29:30;;;;;;;;;;;;;;;20.43;53.20;101732.94;5021091;28;19921;-59
2022/10/02 12:32:13;;;;;;;;;;;;;;;20.44;53.12;101726.56;5021253;28;20424;-60
2022/10/02 12:34:42;;;;;;;;;;;;;;;20.45;53.28;101730.94;5022194;28;19908;-60
2022/10/02 12:37:14;;;;;;;;;;;;;;;20.45;53.27;101729.09;5005032;28;19917;-59
2022/10/02 12:39:45;;;;;;;;;;;;;;;20.47;53.00;101731.63;5023522;28;19980;-60
2022/10/02 12:42:29;;;;;;;;;;;;;;;20.49;53.19;101732.38;5003418;28;19963;-60
2022/10/02 12:45:04;;;;;;;;;;;;;;;20.52;53.19;101736.59;5008188;28;19915;-59
2022/10/02 12:47:29;;;;;;;;;;;;;;;20.55;53.04;101742.53;5023839;28;19913;-60
2022/10/02 12:50:15;;;;;;;;;;;;;;;20.58;52.93;101747.63;5027426;28;20008;-60
2022/10/02 12:52:49;;;;;;;;;;;;;;;20.60;52.96;101744.75;5007585;28;19917;-60
2022/10/02 12:55:33;;;;;;;;;;;;;;;20.59;52.68;101751.16;5017641;28;19913;-60
2022/10/02 12:58:05;;;;;;;;;;;;;;;20.58;52.59;101752.16;5026885;28;19909;-60
2022/10/02 13:00:30;;;;;;;;;;;;;;;20.54;52.68;101754.34;5009550;28;19928;-60
2022/10/02 13:03:07;;;;;;;;;;;;;;;20.51;52.85;101762.75;5009110;28;20000;-60
2022/10/02 13:05:51;;;;;;;;;;;;;;;20.50;52.89;101768.31;5027262;28;19916;-61
2022/10/02 13:08:23;;;;;;;;;;;;;;;20.48;52.93;101771.19;5007209;28;19920;-61
2022/10/02 13:10:53;;;;;;;;;;;;;;;20.46;52.84;101771.31;4990235;28;19929;-61
2022/10/02 13:13:33;;;;;;;;;;;;;;;20.47;52.58;101777.56;5013026;28;20281;-61
2022/10/02 13:16:04;;;;;;;;;;;;;;;20.46;52.62;101770.47;5026803;28;19909;-61